createdAt,value
2017-11-09T00:02:17.487Z,49.87
2017-11-09T00:04:51.009Z,56.00
2017-11-09T00:07:19.856Z,53.73
2017-11-09T00:09:47.932Z,48.37
2017-11-09T00:12:16.027Z,47.20
2017-11-09T00:14:44.098Z,52.47
2017-11-09T00:17:12.170Z,54.47
2017-11-09T00:19:41.016Z,57.43
2017-11-09T00:22:10.050Z,59.53
2017-11-09T00:24:38.247Z,57.60
2017-11-09T00:27:07.127Z,55.97
2017-11-09T00:29:35.964Z,54.37
2017-11-09T00:32:04.049Z,48.50
2017-11-09T00:34:32.132Z,48.43
2017-11-09T00:37:00.220Z,52.60
2017-11-09T00:39:28.288Z,50.93
2017-11-09T00:41:56.369Z,53.40
2017-11-09T00:44:24.452Z,52.57
2017-11-09T00:46:52.512Z,47.73
2017-11-09T00:49:20.593Z,55.77
2017-11-09T00:51:48.669Z,51.90
2017-11-09T00:54:16.745Z,49.80
2017-11-09T00:56:45.604Z,52.57
2017-11-09T00:59:13.712Z,48.50
2017-11-09T01:01:42.562Z,54.70
2017-11-09T01:04:10.637Z,51.87
2017-11-09T01:06:38.736Z,45.10
2017-11-09T01:09:06.809Z,48.30
2017-11-09T01:11:34.890Z,48.73
2017-11-09T01:14:02.957Z,51.60
2017-11-09T01:16:31.034Z,50.00
2017-11-09T01:18:59.106Z,56.53
2017-11-09T01:21:27.180Z,50.70
2017-11-09T01:23:56.029Z,57.33
2017-11-09T01:26:24.120Z,56.23
2017-11-09T01:28:52.181Z,54.17
2017-11-09T01:31:20.261Z,62.10
2017-11-09T01:33:48.328Z,67.27
2017-11-09T01:36:16.428Z,62.93
2017-11-09T01:38:44.725Z,55.40
2017-11-09T01:41:13.556Z,55.57
2017-11-09T01:43:42.405Z,52.60
2017-11-09T01:46:11.265Z,56.80
2017-11-09T01:48:39.341Z,61.00
2017-11-09T01:51:07.411Z,54.80
2017-11-09T01:53:35.493Z,49.23
2017-11-09T01:56:03.573Z,51.80
2017-11-09T01:58:31.658Z,53.13
2017-11-09T02:01:00.522Z,54.50
2017-11-09T02:03:28.593Z,60.43
2017-11-09T02:05:56.677Z,54.87
2017-11-09T02:08:24.749Z,55.23
2017-11-09T02:10:52.821Z,56.93
2017-11-09T02:13:20.906Z,55.90
2017-11-09T02:15:49.772Z,59.50
2017-11-09T02:18:17.845Z,59.30
2017-11-09T02:20:45.916Z,53.97
2017-11-09T02:23:13.989Z,49.90
2017-11-09T02:25:42.076Z,59.73
2017-11-09T02:28:10.940Z,53.37
2017-11-09T02:30:39.020Z,52.53
2017-11-09T02:33:07.103Z,51.43
2017-11-09T02:35:35.191Z,55.93
2017-11-09T02:38:04.033Z,55.10
2017-11-09T02:40:32.881Z,51.93
2017-11-09T02:43:01.717Z,55.47
2017-11-09T02:45:29.805Z,58.43
2017-11-09T02:47:57.873Z,56.53
2017-11-09T02:50:26.022Z,62.87
2017-11-09T02:52:54.096Z,66.87
2017-11-09T02:55:22.183Z,58.43
2017-11-09T02:57:50.287Z,70.03
2017-11-09T03:00:18.377Z,61.90
2017-11-09T03:02:47.233Z,63.60
2017-11-09T03:05:15.301Z,55.70
2017-11-09T03:07:43.394Z,55.90
2017-11-09T03:10:11.457Z,52.00
2017-11-09T03:12:39.540Z,52.57
2017-11-09T03:15:07.618Z,54.80
2017-11-09T03:17:35.692Z,52.00
2017-11-09T03:20:03.761Z,48.90
2017-11-09T03:22:31.840Z,54.13
2017-11-09T03:24:59.917Z,53.47
2017-11-09T03:27:28.005Z,47.77
2017-11-09T03:29:56.858Z,54.57
2017-11-09T03:32:24.936Z,52.73
2017-11-09T03:34:53.009Z,55.17
2017-11-09T03:37:21.089Z,52.33
2017-11-09T03:39:49.162Z,58.13
2017-11-09T03:42:17.238Z,59.10
2017-11-09T03:44:45.317Z,54.87
2017-11-09T03:47:14.155Z,52.30
2017-11-09T03:49:42.231Z,53.00
2017-11-09T03:52:10.305Z,65.40
2017-11-09T03:54:38.392Z,60.03
2017-11-09T03:57:06.461Z,65.30
2017-11-09T03:59:34.544Z,59.87
2017-11-09T04:02:02.635Z,57.43
2017-11-09T04:04:30.717Z,59.20
2017-11-09T04:06:59.568Z,60.30
2017-11-09T04:09:27.654Z,64.57
2017-11-09T04:11:55.728Z,61.67
2017-11-09T04:14:23.907Z,61.10
2017-11-09T04:16:51.986Z,68.47
2017-11-09T04:19:20.065Z,56.33
2017-11-09T04:21:48.144Z,59.40
2017-11-09T04:24:16.978Z,69.67
2017-11-09T04:26:45.061Z,62.83
2017-11-09T04:29:13.179Z,58.13
2017-11-09T04:31:42.034Z,55.57
2017-11-09T04:34:10.125Z,56.43
2017-11-09T04:36:38.224Z,50.77
2017-11-09T04:39:07.061Z,55.13
2017-11-09T04:41:35.145Z,54.80
2017-11-09T04:44:03.236Z,53.93
2017-11-09T04:46:31.321Z,62.67
2017-11-09T04:49:00.180Z,53.23
2017-11-09T04:51:28.257Z,53.73
2017-11-09T04:53:56.389Z,52.83
2017-11-09T04:56:24.499Z,51.70
2017-11-09T04:58:52.576Z,52.13
2017-11-09T05:01:20.649Z,54.27
2017-11-09T05:03:48.733Z,53.47
2017-11-09T05:06:16.804Z,53.70
2017-11-09T05:08:44.892Z,55.30
2017-11-09T05:11:12.965Z,55.80
2017-11-09T05:13:41.037Z,52.57
2017-11-09T05:16:09.108Z,60.00
2017-11-09T05:18:37.182Z,55.83
2017-11-09T05:21:05.258Z,56.33
2017-11-09T05:23:34.107Z,49.80
2017-11-09T05:26:02.190Z,49.17
2017-11-09T05:28:30.264Z,53.47
2017-11-09T05:30:58.332Z,50.20
2017-11-09T05:33:26.402Z,50.90
2017-11-09T05:35:54.486Z,49.63
2017-11-09T05:38:22.554Z,52.33
2017-11-09T05:40:50.635Z,56.83
2017-11-09T05:43:18.701Z,58.10
2017-11-09T05:45:46.792Z,55.87
2017-11-09T05:48:14.865Z,57.27
2017-11-09T05:50:42.928Z,62.47
2017-11-09T05:53:11.016Z,53.20
2017-11-09T05:55:39.077Z,54.53
2017-11-09T05:58:07.244Z,50.90
2017-11-09T06:00:35.324Z,60.23
2017-11-09T06:03:03.410Z,57.63
2017-11-09T06:05:31.482Z,54.90
2017-11-09T06:07:59.730Z,52.57
2017-11-09T06:10:27.797Z,55.03
2017-11-09T06:12:55.890Z,57.50
2017-11-09T06:15:23.974Z,65.37
2017-11-09T06:17:52.129Z,52.37
2017-11-09T06:20:20.327Z,64.70
2017-11-09T06:22:48.449Z,69.90
2017-11-09T06:25:26.421Z,58.23
2017-11-09T06:27:55.293Z,65.07
2017-11-09T06:30:23.373Z,60.77
2017-11-09T06:32:52.200Z,67.93
2017-11-09T06:35:20.316Z,63.30
2017-11-09T06:37:48.395Z,77.67
2017-11-09T06:40:17.292Z,66.90
2017-11-09T06:42:45.377Z,72.57
2017-11-09T06:45:14.310Z,70.30
2017-11-09T06:47:43.154Z,74.33
2017-11-09T06:50:11.218Z,77.23
2017-11-09T06:52:39.292Z,66.50
2017-11-09T06:55:07.444Z,68.87
2017-11-09T06:57:35.524Z,66.87
2017-11-09T07:00:03.610Z,70.90
2017-11-09T07:02:31.685Z,68.30
2017-11-09T07:04:59.834Z,65.20
2017-11-09T07:07:27.914Z,64.83
2017-11-09T07:09:55.976Z,64.60
2017-11-09T07:12:24.076Z,63.93
2017-11-09T07:14:52.137Z,70.57
2017-11-09T07:17:20.213Z,60.27
2017-11-09T07:19:48.312Z,68.77
2017-11-09T07:22:17.185Z,63.67
2017-11-09T07:24:45.257Z,68.03
2017-11-09T07:27:13.339Z,67.10
2017-11-09T07:29:42.181Z,66.50
2017-11-09T07:32:11.023Z,71.73
2017-11-09T07:34:39.861Z,65.67
2017-11-09T07:37:07.939Z,57.83
2017-11-09T07:39:36.021Z,61.57
2017-11-09T07:42:04.121Z,67.13
2017-11-09T07:44:32.197Z,66.17
2017-11-09T07:47:00.278Z,74.00
2017-11-09T07:49:29.128Z,65.87
2017-11-09T07:51:57.203Z,67.63
2017-11-09T07:54:25.280Z,65.30
2017-11-09T07:56:53.347Z,65.97
2017-11-09T07:59:21.440Z,61.20
2017-11-09T08:01:49.533Z,71.20
2017-11-09T08:04:18.374Z,69.83
2017-11-09T08:06:46.453Z,71.83
2017-11-09T08:09:14.526Z,64.07
2017-11-09T08:11:42.605Z,65.40
2017-11-09T08:14:10.889Z,62.40
2017-11-09T08:16:38.967Z,61.57
2017-11-09T08:19:07.036Z,63.53
2017-11-09T08:21:35.113Z,58.90
2017-11-09T08:24:05.668Z,63.47
2017-11-09T08:26:36.185Z,59.87
2017-11-09T08:29:07.784Z,61.30
2017-11-09T08:31:40.363Z,62.27
2017-11-09T08:34:08.445Z,68.87
2017-11-09T08:36:36.520Z,52.23
2017-11-09T08:39:04.599Z,57.80
2017-11-09T08:41:32.685Z,60.77
2017-11-09T08:44:00.793Z,58.50
2017-11-09T08:46:29.641Z,57.57
2017-11-09T08:48:57.712Z,58.20
2017-11-09T08:51:25.788Z,63.80
2017-11-09T08:53:53.870Z,55.57
2017-11-09T08:56:21.945Z,60.33
2017-11-09T08:58:50.021Z,58.00
2017-11-09T09:01:18.113Z,59.67
2017-11-09T09:03:46.230Z,60.17
2017-11-09T09:06:14.311Z,54.10
2017-11-09T09:08:42.397Z,48.70
2017-11-09T09:11:10.469Z,61.63
2017-11-09T09:13:38.541Z,57.83
2017-11-09T09:16:06.616Z,50.47
2017-11-09T09:18:34.689Z,60.50
2017-11-09T09:21:05.252Z,58.50
2017-11-09T09:23:33.312Z,52.90
2017-11-09T09:26:03.256Z,48.70
2017-11-09T09:28:35.433Z,50.93
2017-11-09T09:31:03.544Z,51.90
2017-11-09T09:33:37.179Z,50.50
2017-11-09T09:36:26.577Z,60.77
2017-11-09T09:38:59.190Z,49.00
2017-11-09T09:41:27.277Z,47.53
2017-11-09T09:43:55.370Z,53.23
2017-11-09T09:46:23.457Z,48.97
2017-11-09T09:48:52.313Z,51.53
2017-11-09T09:51:20.410Z,43.80
2017-11-09T09:53:48.477Z,50.10
2017-11-09T09:56:16.558Z,47.63
2017-11-09T09:58:44.633Z,46.20
2017-11-09T10:01:13.500Z,48.60
2017-11-09T10:03:41.571Z,46.47
2017-11-09T10:06:09.659Z,50.23
2017-11-09T10:08:37.725Z,47.60
2017-11-09T10:11:05.817Z,50.77
2017-11-09T10:13:34.674Z,43.97
2017-11-09T10:16:02.746Z,48.00
2017-11-09T10:18:30.838Z,48.37
2017-11-09T10:20:58.920Z,50.07
2017-11-09T10:23:27.002Z,45.30
2017-11-09T10:25:55.846Z,50.30
2017-11-09T10:28:23.930Z,45.70
2017-11-09T10:30:52.000Z,47.93
2017-11-09T10:33:21.013Z,48.37
2017-11-09T10:35:49.101Z,46.37
2017-11-09T10:38:17.202Z,54.10
2017-11-09T10:40:45.273Z,45.23
2017-11-09T10:43:13.349Z,43.97
2017-11-09T10:45:41.441Z,48.63
2017-11-09T10:48:10.286Z,50.77
2017-11-09T10:50:39.144Z,54.17
2017-11-09T10:53:07.216Z,43.50
2017-11-09T10:55:35.313Z,49.03
2017-11-09T10:58:03.424Z,46.43
2017-11-09T11:00:37.012Z,52.40
2017-11-09T11:03:05.892Z,44.57
2017-11-09T11:05:33.980Z,47.50
2017-11-09T11:08:02.088Z,43.53
2017-11-09T11:10:30.197Z,45.77
2017-11-09T11:12:58.268Z,47.57
2017-11-09T11:15:26.342Z,43.70
2017-11-09T11:17:54.430Z,45.87
2017-11-09T11:20:23.260Z,50.07
2017-11-09T11:22:51.353Z,41.03
2017-11-09T11:25:20.225Z,47.57
2017-11-09T11:27:48.313Z,46.97
2017-11-09T11:30:16.390Z,44.93
2017-11-09T11:32:44.478Z,50.80
2017-11-09T11:35:12.566Z,45.90
2017-11-09T11:37:40.640Z,50.33
2017-11-09T11:40:08.929Z,45.47
2017-11-09T11:42:37.777Z,46.10
2017-11-09T11:45:05.853Z,49.90
2017-11-09T11:47:33.943Z,48.20
2017-11-09T11:50:02.012Z,48.90
2017-11-09T11:52:30.093Z,51.03
2017-11-09T11:54:58.169Z,57.03
2017-11-09T11:57:26.236Z,54.53
2017-11-09T11:59:54.321Z,51.97
2017-11-09T12:02:23.175Z,47.67
2017-11-09T12:04:52.155Z,48.40
2017-11-09T12:07:20.233Z,44.17
2017-11-09T12:09:48.316Z,44.03
2017-11-09T12:12:16.395Z,46.90
2017-11-09T12:14:44.473Z,47.17
2017-11-09T12:17:12.558Z,46.90
2017-11-09T12:19:41.421Z,48.47
2017-11-09T12:22:09.527Z,48.30
2017-11-09T12:24:37.613Z,53.03
2017-11-09T12:27:06.456Z,59.13
2017-11-09T12:29:34.529Z,53.13
2017-11-09T12:32:02.609Z,53.80
2017-11-09T12:34:30.693Z,55.27
2017-11-09T12:36:58.793Z,53.13
2017-11-09T12:39:27.641Z,51.43
2017-11-09T12:41:55.728Z,59.60
2017-11-09T12:44:23.800Z,52.30
2017-11-09T12:46:51.897Z,53.30
2017-11-09T12:49:20.744Z,76.30
2017-11-09T12:51:48.825Z,60.87
2017-11-09T12:54:16.909Z,62.13
2017-11-09T12:56:44.981Z,50.17
2017-11-09T12:59:13.065Z,53.23
2017-11-09T13:01:41.137Z,55.77
2017-11-09T13:04:09.209Z,52.83
2017-11-09T13:06:37.293Z,51.00
2017-11-09T13:09:06.148Z,62.30
2017-11-09T13:11:34.236Z,59.63
2017-11-09T13:14:02.329Z,51.37
2017-11-09T13:16:31.181Z,52.60
2017-11-09T13:18:59.273Z,55.97
2017-11-09T13:21:27.357Z,60.13
2017-11-09T13:23:55.445Z,56.83
2017-11-09T13:26:24.285Z,58.60
2017-11-09T13:28:52.366Z,57.13
2017-11-09T13:31:20.450Z,51.17
2017-11-09T13:33:48.525Z,51.83
2017-11-09T13:36:16.612Z,57.90
2017-11-09T13:38:44.705Z,69.27
2017-11-09T13:41:13.560Z,59.90
2017-11-09T13:43:41.637Z,59.57
2017-11-09T13:46:09.722Z,52.87
2017-11-09T13:48:37.805Z,59.67
2017-11-09T13:51:06.658Z,57.77
2017-11-09T13:53:34.733Z,59.20
2017-11-09T13:56:02.841Z,56.03
2017-11-09T13:58:31.686Z,64.60
2017-11-09T14:00:59.766Z,55.27
2017-11-09T14:03:27.852Z,55.30
2017-11-09T14:05:55.929Z,58.13
2017-11-09T14:08:24.017Z,58.03
2017-11-09T14:10:52.872Z,53.23
2017-11-09T14:13:20.956Z,54.73
2017-11-09T14:15:49.039Z,54.80
2017-11-09T14:18:17.117Z,57.77
2017-11-09T14:20:45.193Z,54.47
2017-11-09T14:23:13.278Z,96.27
2017-11-09T14:25:42.120Z,70.33
2017-11-09T14:28:10.198Z,57.60
2017-11-09T14:30:38.272Z,57.97
2017-11-09T14:33:06.364Z,47.20
2017-11-09T14:35:34.433Z,56.77
2017-11-09T14:38:02.517Z,52.00
2017-11-09T14:40:30.593Z,52.30
2017-11-09T14:42:58.680Z,50.27
2017-11-09T14:45:27.524Z,50.53
2017-11-09T14:47:55.618Z,51.73
2017-11-09T14:50:23.690Z,51.70
2017-11-09T14:52:51.773Z,54.43
2017-11-09T14:55:19.845Z,52.30
2017-11-09T14:57:48.734Z,55.70
2017-11-09T15:00:16.812Z,54.50
2017-11-09T15:02:44.904Z,49.10
2017-11-09T15:05:13.741Z,53.47
2017-11-09T15:07:41.822Z,55.30
2017-11-09T15:10:09.897Z,54.53
2017-11-09T15:12:37.976Z,46.97
2017-11-09T15:15:06.054Z,58.83
2017-11-09T15:17:34.142Z,62.43
2017-11-09T15:20:02.995Z,60.33
2017-11-09T15:22:31.078Z,58.67
2017-11-09T15:24:59.165Z,57.17
2017-11-09T15:27:27.241Z,54.00
2017-11-09T15:29:55.315Z,51.37
2017-11-09T15:32:40.010Z,53.83
2017-11-09T15:35:11.049Z,59.33
2017-11-09T15:37:39.141Z,61.63
2017-11-09T15:40:07.215Z,60.13
2017-11-09T15:42:35.305Z,72.73
2017-11-09T15:45:03.387Z,61.07
2017-11-09T15:47:31.471Z,64.27
2017-11-09T15:49:59.583Z,69.53
2017-11-09T15:52:27.681Z,59.80
2017-11-09T15:54:56.531Z,62.50
2017-11-09T15:57:25.380Z,68.10
2017-11-09T15:59:53.456Z,67.73
2017-11-09T16:02:21.534Z,87.33
2017-11-09T16:04:49.622Z,73.47
2017-11-09T16:07:17.693Z,76.10
2017-11-09T16:09:45.781Z,59.53
2017-11-09T16:12:14.626Z,64.83
2017-11-09T16:14:42.709Z,71.00
2017-11-09T16:17:10.810Z,60.87
2017-11-09T16:19:38.889Z,62.53
2017-11-09T16:22:07.725Z,57.93
2017-11-09T16:24:35.805Z,66.00
2017-11-09T16:27:04.654Z,59.23
2017-11-09T16:29:33.506Z,80.70
2017-11-09T16:32:01.701Z,74.30
2017-11-09T16:34:29.782Z,66.60
2017-11-09T16:36:58.648Z,61.97
2017-11-09T16:39:26.720Z,76.93
2017-11-09T16:41:54.873Z,67.67
2017-11-09T16:44:23.753Z,66.13
2017-11-09T16:46:51.830Z,71.33
2017-11-09T16:49:20.680Z,738.73
2017-11-09T16:51:49.539Z,493.67
2017-11-09T16:54:17.621Z,315.03
2017-11-09T16:56:47.653Z,278.97
2017-11-09T16:59:15.769Z,105.07
2017-11-09T17:01:44.617Z,63.93
2017-11-09T17:04:13.457Z,52.13
2017-11-09T17:06:41.541Z,52.07
2017-11-09T17:09:09.612Z,44.40
2017-11-09T17:11:37.701Z,42.80
2017-11-09T17:14:05.777Z,40.03
2017-11-09T17:16:33.865Z,40.27
2017-11-09T17:19:01.945Z,46.40
2017-11-09T17:21:30.801Z,37.07
2017-11-09T17:23:58.873Z,41.90
2017-11-09T17:26:27.031Z,39.27
2017-11-09T17:28:55.864Z,40.83
2017-11-09T17:31:23.969Z,40.40
2017-11-09T17:33:52.054Z,39.97
2017-11-09T17:36:20.141Z,46.60
2017-11-09T17:38:48.221Z,46.00
2017-11-09T17:41:16.321Z,43.30
2017-11-09T17:43:50.362Z,47.30
2017-11-09T17:46:19.224Z,45.30
2017-11-09T17:48:47.330Z,51.63
2017-11-09T17:51:16.176Z,54.13
2017-11-09T17:53:44.261Z,56.20
2017-11-09T17:56:12.336Z,58.43
2017-11-09T17:58:40.451Z,47.83
2017-11-09T18:01:08.545Z,48.27
2017-11-09T18:03:36.673Z,56.33
2017-11-09T18:06:05.522Z,47.93
2017-11-09T18:08:33.623Z,50.70
2017-11-09T18:11:01.703Z,52.10
2017-11-09T18:13:29.814Z,58.93
2017-11-09T18:15:57.909Z,57.53
2017-11-09T18:18:25.988Z,60.53
2017-11-09T18:20:54.093Z,51.63
2017-11-09T18:23:25.849Z,57.50
2017-11-09T18:25:53.947Z,52.67
2017-11-09T18:28:22.783Z,63.77
2017-11-09T18:30:50.877Z,73.83
2017-11-09T18:33:18.965Z,70.00
2017-11-09T18:35:47.822Z,71.50
2017-11-09T18:38:15.913Z,69.03
2017-11-09T18:40:44.000Z,78.43
2017-11-09T18:43:12.073Z,77.93
2017-11-09T18:45:40.977Z,83.63
2017-11-09T18:48:09.826Z,62.80
2017-11-09T18:50:37.929Z,57.70
2017-11-09T18:53:06.017Z,58.50
2017-11-09T18:55:34.867Z,57.80
2017-11-09T18:58:02.963Z,65.83
2017-11-09T19:00:33.780Z,55.00
2017-11-09T19:03:01.870Z,56.90
2017-11-09T19:05:30.953Z,61.97
2017-11-09T19:07:59.037Z,100.23
2017-11-09T19:10:27.111Z,57.60
2017-11-09T19:12:55.196Z,57.17
2017-11-09T19:15:24.060Z,64.90
2017-11-09T19:17:52.169Z,78.40
2017-11-09T19:20:21.021Z,84.80
2017-11-09T19:22:49.108Z,70.37
2017-11-09T19:25:17.206Z,62.30
2017-11-09T19:27:46.085Z,66.40
2017-11-09T19:30:14.928Z,63.90
2017-11-09T19:32:43.023Z,70.47
2017-11-09T19:35:11.106Z,74.97
2017-11-09T19:37:39.180Z,69.23
2017-11-09T19:40:07.256Z,68.80
2017-11-09T19:42:35.346Z,71.13
2017-11-09T19:45:04.201Z,78.53
2017-11-09T19:47:32.282Z,170.20
2017-11-09T19:50:00.379Z,120.70
2017-11-09T19:52:29.229Z,123.03
2017-11-09T19:54:57.332Z,106.53
2017-11-09T19:57:25.404Z,82.73
2017-11-09T19:59:54.290Z,93.00
2017-11-09T20:02:22.370Z,91.20
2017-11-09T20:04:51.234Z,75.63
2017-11-09T20:07:19.328Z,85.47
2017-11-09T20:09:47.404Z,74.37
2017-11-09T20:12:15.493Z,83.73
2017-11-09T20:14:44.343Z,82.70
2017-11-09T20:17:12.427Z,89.40
2017-11-09T20:19:40.492Z,93.60
2017-11-09T20:22:08.573Z,98.10
2017-11-09T20:24:36.643Z,84.33
2017-11-09T20:27:04.730Z,89.97
2017-11-09T20:29:32.797Z,78.90
2017-11-09T20:32:00.872Z,90.27
2017-11-09T20:34:28.932Z,85.63
2017-11-09T20:36:57.030Z,84.77
2017-11-09T20:39:25.870Z,79.57
2017-11-09T20:41:54.703Z,79.70
2017-11-09T20:44:22.787Z,69.90
2017-11-09T20:46:51.615Z,75.50
2017-11-09T20:49:19.699Z,82.33
2017-11-09T20:51:47.772Z,86.43
2017-11-09T20:54:15.854Z,82.93
2017-11-09T20:56:43.941Z,75.18
2017-11-09T20:59:12.020Z,78.80
2017-11-09T21:01:40.097Z,82.70
2017-11-09T21:04:08.177Z,74.93
2017-11-09T21:06:37.021Z,76.70
2017-11-09T21:09:05.100Z,68.57
2017-11-09T21:11:33.176Z,77.10
2017-11-09T21:14:01.253Z,73.40
2017-11-09T21:16:29.320Z,77.47
2017-11-09T21:18:57.557Z,74.63
2017-11-09T21:21:25.631Z,73.67
2017-11-09T21:23:53.731Z,81.07
2017-11-09T21:26:21.799Z,70.10
2017-11-09T21:28:49.878Z,82.20
2017-11-09T21:31:17.962Z,86.77
2017-11-09T21:33:46.033Z,86.40
2017-11-09T21:36:14.124Z,81.80
2017-11-09T21:38:42.192Z,82.67
2017-11-09T21:41:10.278Z,79.93
2017-11-09T21:43:39.126Z,74.80
2017-11-09T21:46:07.194Z,79.63
2017-11-09T21:48:36.062Z,78.50
2017-11-09T21:51:11.467Z,87.60
2017-11-09T21:53:39.540Z,88.23
2017-11-09T21:56:07.631Z,89.85
2017-11-09T21:58:35.696Z,90.87
2017-11-09T22:01:03.775Z,96.90
2017-11-09T22:03:32.656Z,99.47
2017-11-09T22:06:00.706Z,84.20
2017-11-09T22:08:28.777Z,97.17
2017-11-09T22:10:56.865Z,93.70
2017-11-09T22:13:24.946Z,89.00
2017-11-09T22:15:53.020Z,83.83
2017-11-09T22:18:21.093Z,73.90
2017-11-09T22:20:49.177Z,82.50
2017-11-09T22:23:18.100Z,67.75
2017-11-09T22:25:46.186Z,78.73
2017-11-09T22:28:15.020Z,67.90
2017-11-09T22:30:43.104Z,79.07
2017-11-09T22:33:11.959Z,73.37
2017-11-09T22:35:40.038Z,74.23
2017-11-09T22:38:08.112Z,55.73
2017-11-09T22:40:36.199Z,66.93
2017-11-09T22:43:04.286Z,55.72
2017-11-09T22:45:33.137Z,50.30
2017-11-09T22:48:01.207Z,51.87
2017-11-09T22:50:29.285Z,48.47
2017-11-09T22:52:57.369Z,54.13
2017-11-09T22:55:25.591Z,53.53
2017-11-09T22:57:53.669Z,51.80
2017-11-09T23:00:21.765Z,41.83
2017-11-09T23:02:49.924Z,46.47
2017-11-09T23:05:17.999Z,49.97
2017-11-09T23:07:46.089Z,48.60
2017-11-09T23:10:14.225Z,46.60
2017-11-09T23:12:42.320Z,46.67
2017-11-09T23:15:10.410Z,47.60
2017-11-09T23:17:38.497Z,45.80
2017-11-09T23:22:40.055Z,48.17
2017-11-09T23:25:08.310Z,47.07
2017-11-09T23:27:36.385Z,45.10
2017-11-09T23:30:04.470Z,50.63
2017-11-09T23:32:32.707Z,52.13
2017-11-09T23:35:00.783Z,42.67
2017-11-09T23:37:29.628Z,46.27
2017-11-09T23:39:57.714Z,46.95
2017-11-09T23:42:25.798Z,46.30
2017-11-09T23:44:54.661Z,48.87
2017-11-09T23:47:22.754Z,49.65
2017-11-09T23:49:50.847Z,44.73
2017-11-09T23:52:19.692Z,54.30
2017-11-09T23:54:47.769Z,47.05
2017-11-09T23:57:15.872Z,49.35
2017-11-09T23:59:43.942Z,56.10
